»·PEaware :: N2442P L52-KIZA

N2442P :: L52-KIZA

FLIGHT INFORMATION

Flight Status: Arrived
Operator: Privately registered:
United States
More flights under this callsign
Pilot: Ken Q. (14290)
Aircraft: MOONEY M-20K/M ENCORE BRAVO
(M20T)
More flights by this aircraft type
Origin: L52 Oceano Co
United States
Destination: KIZA Santa Ynez
United States
More flights between these airports :: More routes between these airports
Route: L52 GVO KIZA
File this flight plan on PilotEdge
Remarks:
Altitude:
(Current/Filed)
6,500ft
Speed:
(Current/Filed)
165kts
Departed: 17-Feb-17 07:47 AM
Arrived: 17-Feb-17 08:13 AM
Distance/Time
Traveled:
40nm/0:26
Distance/Time
To Go:
Arrived

Flight Plot

Page will automatically refresh every two minutes.

Flight plan parsing failed; only flown route is shown


Map Options




Map Legend


Flown Route
Filed Route
Departure Airport
Arrival Airport
Navaid (VOR, NDB)
Fix

Horizontal Profiles

Position Reports

Time Latitude Longitude Heading Altitude Ground
Speed
17-Feb-17 07:28 35.103089 -120.623978 216 17ft 0kts
17-Feb-17 07:29 35.103089 -120.623978 216 17ft 0kts
17-Feb-17 07:30 35.103089 -120.623978 216 17ft 0kts
17-Feb-17 07:31 35.103089 -120.623978 216 17ft 0kts
17-Feb-17 07:32 35.103089 -120.623978 216 17ft 0kts
17-Feb-17 07:33 35.103089 -120.623978 216 17ft 0kts
17-Feb-17 07:34 35.103089 -120.623978 216 17ft 0kts
17-Feb-17 07:35 35.103089 -120.623978 216 17ft 0kts
17-Feb-17 07:36 35.103089 -120.623978 216 17ft 0kts
17-Feb-17 07:37 35.103089 -120.623978 216 17ft 0kts
17-Feb-17 07:38 35.103089 -120.623978 216 17ft 0kts
17-Feb-17 07:39 35.103089 -120.623978 216 17ft 0kts
17-Feb-17 07:40 35.103089 -120.623978 216 17ft 0kts
17-Feb-17 07:41 35.103088 -120.623978 216 17ft 0kts
17-Feb-17 07:42 35.103088 -120.623978 216 17ft 0kts
17-Feb-17 07:43 35.103051 -120.624078 277 17ft 2kts
17-Feb-17 07:44 35.103539 -120.625229 219 17ft 0kts
17-Feb-17 07:45 35.103533 -120.625235 218 17ft 0kts
17-Feb-17 07:46 35.103497 -120.625276 222 17ft 2kts
17-Feb-17 07:47 35.098467 -120.616131 123 98ft 92kts
17-Feb-17 07:48 35.087439 -120.585843 121 880ft 122kts
17-Feb-17 07:49 35.060248 -120.559644 140 1603ft 128kts
17-Feb-17 07:50 35.032781 -120.531158 140 2301ft 131kts
17-Feb-17 07:51 35.006214 -120.500044 140 3000ft 133kts
17-Feb-17 07:52 34.984546 -120.472446 140 3588ft 133kts
17-Feb-17 07:53 34.958850 -120.439815 140 4284ft 133kts
17-Feb-17 07:54 34.932135 -120.409049 143 4977ft 131kts
17-Feb-17 07:55 34.908205 -120.381630 143 5479ft 138kts
17-Feb-17 07:56 34.908205 -120.381630 143 5479ft 138kts
17-Feb-17 07:57 34.908205 -120.381630 143 5479ft 138kts
17-Feb-17 07:58 34.885194 -120.356053 143 5491ft 160kts
17-Feb-17 07:59 34.850747 -120.318524 143 5484ft 169kts
17-Feb-17 08:00 34.813050 -120.284966 154 5482ft 167kts
17-Feb-17 08:01 34.775935 -120.258311 154 5482ft 168kts
17-Feb-17 08:02 34.736320 -120.230079 154 5275ft 161kts
17-Feb-17 08:03 34.697454 -120.202391 154 4775ft 162kts
17-Feb-17 08:04 34.662632 -120.178335 157 4232ft 126kts
17-Feb-17 08:05 34.633001 -120.159158 157 3716ft 117kts
17-Feb-17 08:06 34.606574 -120.137431 103 3214ft 122kts
17-Feb-17 08:07 34.590777 -120.103965 100 2737ft 118kts
17-Feb-17 08:08 34.588186 -120.067952 94 2278ft 120kts
17-Feb-17 08:09 34.586047 -120.025584 87 1807ft 129kts
17-Feb-17 08:10 34.603054 -120.024431 265 1472ft 100kts
17-Feb-17 08:11 34.603944 -120.052441 278 1016ft 74kts
17-Feb-17 08:12 34.606645 -120.074519 277 674ft 41kts
17-Feb-17 08:13 34.607308 -120.076907 350 674ft 0kts
17-Feb-17 08:14 34.607795 -120.079782 275 674ft 10kts
17-Feb-17 08:15 34.607581 -120.076425 72 674ft 18kts
17-Feb-17 08:16 34.607809 -120.075083 183 674ft 0kts
17-Feb-17 08:17 34.607838 -120.075076 189 674ft 0kts
17-Feb-17 08:18 34.607838 -120.075076 189 674ft 0kts
17-Feb-17 08:19 34.607838 -120.075076 189 674ft 0kts

Navigation Log

Ident Type
Flight plan parsing failed, navigation log unavailable